sensor_id;sensor_type;location;lat;lon;timestamp;pressure;altitude;pressure_sealevel;temperature;humidity
5954;BME280;3002;42.642;24.812;2023-08-12T00:00:11;96914.28;;;20.50;81.44
5954;BME280;3002;42.642;24.812;2023-08-12T00:02:38;96913.88;;;20.03;86.75
5954;BME280;3002;42.642;24.812;2023-08-12T00:05:05;96897.63;;;19.94;87.53
5954;BME280;3002;42.642;24.812;2023-08-12T00:07:31;96914.13;;;20.10;87.18
5954;BME280;3002;42.642;24.812;2023-08-12T00:09:58;96891.88;;;20.08;87.69
5954;BME280;3002;42.642;24.812;2023-08-12T00:12:23;96918.34;;;20.32;85.18
5954;BME280;3002;42.642;24.812;2023-08-12T00:14:48;96922.34;;;20.35;86.99
5954;BME280;3002;42.642;24.812;2023-08-12T00:17:14;96912.09;;;20.19;86.74
5954;BME280;3002;42.642;24.812;2023-08-12T00:19:42;96901.88;;;20.04;86.09
5954;BME280;3002;42.642;24.812;2023-08-12T00:22:08;96914.81;;;20.19;84.02
5954;BME280;3002;42.642;24.812;2023-08-12T00:24:33;96917.09;;;20.29;84.16
5954;BME280;3002;42.642;24.812;2023-08-12T00:26:59;96916.69;;;19.94;88.59
5954;BME280;3002;42.642;24.812;2023-08-12T00:29:24;96902.25;;;19.82;87.95
5954;BME280;3002;42.642;24.812;2023-08-12T00:31:50;96913.59;;;19.84;86.90
5954;BME280;3002;42.642;24.812;2023-08-12T00:34:17;96908.75;;;20.01;87.42
5954;BME280;3002;42.642;24.812;2023-08-12T00:36:42;96908.47;;;20.15;85.74
5954;BME280;3002;42.642;24.812;2023-08-12T00:39:08;96919.00;;;20.17;85.62
5954;BME280;3002;42.642;24.812;2023-08-12T00:41:33;96907.69;;;19.82;86.12
5954;BME280;3002;42.642;24.812;2023-08-12T00:43:58;96883.63;;;19.71;86.63
5954;BME280;3002;42.642;24.812;2023-08-12T00:46:24;96875.94;;;19.73;87.02
5954;BME280;3002;42.642;24.812;2023-08-12T00:48:49;96905.34;;;19.92;88.68
5954;BME280;3002;42.642;24.812;2023-08-12T00:51:18;96904.25;;;20.05;85.57
5954;BME280;3002;42.642;24.812;2023-08-12T00:53:46;96904.97;;;19.82;88.24
5954;BME280;3002;42.642;24.812;2023-08-12T00:56:12;96893.81;;;19.62;88.86
5954;BME280;3002;42.642;24.812;2023-08-12T00:58:39;96877.72;;;19.48;88.38
5954;BME280;3002;42.642;24.812;2023-08-12T01:01:05;96902.44;;;19.43;89.33
5954;BME280;3002;42.642;24.812;2023-08-12T01:03:30;96894.59;;;19.42;89.35
5954;BME280;3002;42.642;24.812;2023-08-12T01:05:56;96879.59;;;19.36;90.52
5954;BME280;3002;42.642;24.812;2023-08-12T01:08:24;96905.94;;;19.65;89.90
5954;BME280;3002;42.642;24.812;2023-08-12T01:10:58;96901.09;;;19.70;87.87
5954;BME280;3002;42.642;24.812;2023-08-12T01:16:33;96892.47;;;19.68;90.48
5954;BME280;3002;42.642;24.812;2023-08-12T01:19:02;96895.13;;;19.56;91.54
5954;BME280;3002;42.642;24.812;2023-08-12T01:21:31;96895.97;;;19.48;92.39
5954;BME280;3002;42.642;24.812;2023-08-12T01:23:57;96882.91;;;19.41;91.06
5954;BME280;3002;42.642;24.812;2023-08-12T01:26:23;96889.16;;;19.63;90.86
5954;BME280;3002;42.642;24.812;2023-08-12T01:28:48;96867.25;;;19.59;89.56
5954;BME280;3002;42.642;24.812;2023-08-12T01:31:37;96886.34;;;19.71;90.18
5954;BME280;3002;42.642;24.812;2023-08-12T01:34:19;96874.75;;;19.41;91.14
5954;BME280;3002;42.642;24.812;2023-08-12T01:36:53;96871.81;;;19.13;92.35
5954;BME280;3002;42.642;24.812;2023-08-12T01:39:20;96871.19;;;19.29;90.91
5954;BME280;3002;42.642;24.812;2023-08-12T01:41:46;96866.16;;;19.18;93.13
5954;BME280;3002;42.642;24.812;2023-08-12T01:44:12;96890.00;;;19.55;91.48
5954;BME280;3002;42.642;24.812;2023-08-12T01:46:39;96888.50;;;19.45;91.42
5954;BME280;3002;42.642;24.812;2023-08-12T01:49:04;96892.94;;;19.29;92.35
5954;BME280;3002;42.642;24.812;2023-08-12T01:51:30;96892.22;;;19.40;93.67
5954;BME280;3002;42.642;24.812;2023-08-12T01:53:55;96883.09;;;19.57;89.25
5954;BME280;3002;42.642;24.812;2023-08-12T01:56:21;96891.34;;;19.48;91.70
5954;BME280;3002;42.642;24.812;2023-08-12T01:58:46;96889.03;;;19.38;92.55
5954;BME280;3002;42.642;24.812;2023-08-12T02:01:12;96881.13;;;19.45;92.94
5954;BME280;3002;42.642;24.812;2023-08-12T02:03:37;96890.44;;;19.44;90.04
5954;BME280;3002;42.642;24.812;2023-08-12T02:06:04;96896.19;;;19.43;88.69
5954;BME280;3002;42.642;24.812;2023-08-12T02:08:29;96889.44;;;19.28;91.01
5954;BME280;3002;42.642;24.812;2023-08-12T02:10:55;96904.75;;;19.33;92.76
5954;BME280;3002;42.642;24.812;2023-08-12T02:13:20;96887.84;;;19.06;91.40
5954;BME280;3002;42.642;24.812;2023-08-12T02:15:45;96906.22;;;19.09;93.38
5954;BME280;3002;42.642;24.812;2023-08-12T02:18:11;96906.00;;;19.35;91.28
5954;BME280;3002;42.642;24.812;2023-08-12T02:20:36;96893.00;;;19.41;90.67
5954;BME280;3002;42.642;24.812;2023-08-12T02:23:02;96868.75;;;18.94;93.37
5954;BME280;3002;42.642;24.812;2023-08-12T02:25:27;96893.09;;;19.11;93.60
5954;BME280;3002;42.642;24.812;2023-08-12T02:27:53;96869.69;;;18.98;94.82
5954;BME280;3002;42.642;24.812;2023-08-12T02:30:18;96902.09;;;19.24;91.93
5954;BME280;3002;42.642;24.812;2023-08-12T02:32:44;96893.84;;;19.20;92.29
5954;BME280;3002;42.642;24.812;2023-08-12T02:35:09;96884.13;;;19.11;92.82
5954;BME280;3002;42.642;24.812;2023-08-12T02:37:35;96885.78;;;18.82;97.32
5954;BME280;3002;42.642;24.812;2023-08-12T02:40:01;96892.88;;;18.75;97.94
5954;BME280;3002;42.642;24.812;2023-08-12T02:42:29;96873.50;;;18.76;95.29
5954;BME280;3002;42.642;24.812;2023-08-12T02:44:55;96906.06;;;19.06;94.39
5954;BME280;3002;42.642;24.812;2023-08-12T02:47:21;96916.41;;;19.12;94.88
5954;BME280;3002;42.642;24.812;2023-08-12T02:49:47;96913.03;;;18.94;96.90
5954;BME280;3002;42.642;24.812;2023-08-12T02:52:13;96903.69;;;18.83;95.78
5954;BME280;3002;42.642;24.812;2023-08-12T02:54:39;96910.84;;;18.88;96.98
5954;BME280;3002;42.642;24.812;2023-08-12T02:57:04;96903.22;;;18.81;96.79
5954;BME280;3002;42.642;24.812;2023-08-12T02:59:30;96908.81;;;18.76;97.17
5954;BME280;3002;42.642;24.812;2023-08-12T03:01:55;96904.19;;;18.77;97.84
5954;BME280;3002;42.642;24.812;2023-08-12T03:04:21;96903.91;;;18.69;99.56
5954;BME280;3002;42.642;24.812;2023-08-12T03:06:47;96903.75;;;18.66;98.95
5954;BME280;3002;42.642;24.812;2023-08-12T03:09:13;96894.19;;;18.68;98.88
5954;BME280;3002;42.642;24.812;2023-08-12T03:11:38;96905.41;;;18.88;96.20
5954;BME280;3002;42.642;24.812;2023-08-12T03:14:04;96906.66;;;18.61;100.00
5954;BME280;3002;42.642;24.812;2023-08-12T03:16:29;96905.50;;;18.70;100.00
5954;BME280;3002;42.642;24.812;2023-08-12T03:18:55;96916.72;;;18.60;99.22
5954;BME280;3002;42.642;24.812;2023-08-12T03:21:21;96906.88;;;18.47;100.00
5954;BME280;3002;42.642;24.812;2023-08-12T03:23:47;96908.19;;;18.41;100.00
5954;BME280;3002;42.642;24.812;2023-08-12T03:26:12;96895.56;;;18.45;100.00
5954;BME280;3002;42.642;24.812;2023-08-12T03:28:39;96915.06;;;18.77;99.47
5954;BME280;3002;42.642;24.812;2023-08-12T03:31:04;96899.94;;;18.58;100.00
5954;BME280;3002;42.642;24.812;2023-08-12T03:33:30;96901.78;;;18.45;100.00
5954;BME280;3002;42.642;24.812;2023-08-12T03:35:59;96901.69;;;18.63;99.07
5954;BME280;3002;42.642;24.812;2023-08-12T03:38:24;96897.66;;;18.78;98.22
5954;BME280;3002;42.642;24.812;2023-08-12T03:40:50;96895.13;;;18.73;100.00
5954;BME280;3002;42.642;24.812;2023-08-12T03:43:15;96910.09;;;18.79;99.94
5954;BME280;3002;42.642;24.812;2023-08-12T03:45:42;96920.22;;;18.69;100.00
5954;BME280;3002;42.642;24.812;2023-08-12T03:48:08;96913.91;;;18.48;100.00
5954;BME280;3002;42.642;24.812;2023-08-12T03:50:35;96924.22;;;18.63;100.00
5954;BME280;3002;42.642;24.812;2023-08-12T03:53:01;96923.09;;;18.64;100.00
5954;BME280;3002;42.642;24.812;2023-08-12T03:55:27;96925.31;;;18.71;99.05
5954;BME280;3002;42.642;24.812;2023-08-12T03:57:57;96916.00;;;18.81;96.96
5954;BME280;3002;42.642;24.812;2023-08-12T04:00:22;96896.91;;;18.68;97.75
5954;BME280;3002;42.642;24.812;2023-08-12T04:02:47;96930.50;;;19.14;96.50
5954;BME280;3002;42.642;24.812;2023-08-12T04:05:13;96914.84;;;19.11;95.64
5954;BME280;3002;42.642;24.812;2023-08-12T04:07:38;96923.75;;;19.20;96.64
5954;BME280;3002;42.642;24.812;2023-08-12T04:10:04;96906.69;;;19.11;95.58
5954;BME280;3002;42.642;24.812;2023-08-12T04:12:30;96924.13;;;19.31;94.30
5954;BME280;3002;42.642;24.812;2023-08-12T04:14:55;96915.44;;;19.38;91.25
5954;BME280;3002;42.642;24.812;2023-08-12T04:17:20;96930.94;;;19.16;92.58
5954;BME280;3002;42.642;24.812;2023-08-12T04:19:46;96917.44;;;19.29;91.46
5954;BME280;3002;42.642;24.812;2023-08-12T04:22:11;96914.91;;;19.44;90.10
5954;BME280;3002;42.642;24.812;2023-08-12T04:24:37;96921.41;;;19.31;89.31
5954;BME280;3002;42.642;24.812;2023-08-12T04:27:02;96921.16;;;19.78;84.72
5954;BME280;3002;42.642;24.812;2023-08-12T04:29:28;96908.22;;;20.20;81.25
5954;BME280;3002;42.642;24.812;2023-08-12T04:31:53;96922.00;;;20.97;77.95
5954;BME280;3002;42.642;24.812;2023-08-12T04:34:18;96922.03;;;20.73;80.45
5954;BME280;3002;42.642;24.812;2023-08-12T04:36:44;96931.00;;;20.73;80.34
5954;BME280;3002;42.642;24.812;2023-08-12T04:39:09;96913.97;;;20.89;80.45
5954;BME280;3002;42.642;24.812;2023-08-12T04:41:35;96929.50;;;21.13;77.62
5954;BME280;3002;42.642;24.812;2023-08-12T04:44:04;96927.75;;;21.32;77.95
5954;BME280;3002;42.642;24.812;2023-08-12T04:46:29;96924.16;;;22.00;72.22
5954;BME280;3002;42.642;24.812;2023-08-12T04:48:55;96902.81;;;22.18;73.53
5954;BME280;3002;42.642;24.812;2023-08-12T04:51:20;96919.66;;;22.20;69.15
5954;BME280;3002;42.642;24.812;2023-08-12T04:53:46;96911.19;;;22.41;67.14
5954;BME280;3002;42.642;24.812;2023-08-12T04:56:11;96913.78;;;22.50;72.08
5954;BME280;3002;42.642;24.812;2023-08-12T04:58:37;96930.03;;;23.09;67.26
5954;BME280;3002;42.642;24.812;2023-08-12T05:01:02;96931.00;;;23.56;65.62
5954;BME280;3002;42.642;24.812;2023-08-12T05:03:28;96930.56;;;24.12;63.52
5954;BME280;3002;42.642;24.812;2023-08-12T05:05:53;96931.53;;;24.23;62.90
5954;BME280;3002;42.642;24.812;2023-08-12T05:08:19;96922.63;;;24.49;60.87
5954;BME280;3002;42.642;24.812;2023-08-12T05:10:48;96927.34;;;24.75;60.73
5954;BME280;3002;42.642;24.812;2023-08-12T05:13:14;96914.69;;;24.93;59.73
5954;BME280;3002;42.642;24.812;2023-08-12T05:15:40;96939.44;;;25.50;58.16
5954;BME280;3002;42.642;24.812;2023-08-12T05:18:06;96930.47;;;25.26;58.99
5954;BME280;3002;42.642;24.812;2023-08-12T05:20:31;96939.00;;;25.78;57.86
5954;BME280;3002;42.642;24.812;2023-08-12T05:22:57;96918.13;;;26.07;56.04
5954;BME280;3002;42.642;24.812;2023-08-12T05:25:22;96934.69;;;27.03;52.47
5954;BME280;3002;42.642;24.812;2023-08-12T05:27:49;96910.91;;;27.35;50.72
5954;BME280;3002;42.642;24.812;2023-08-12T05:30:14;96921.03;;;28.11;48.73
5954;BME280;3002;42.642;24.812;2023-08-12T05:32:40;96938.34;;;27.97;50.59
5954;BME280;3002;42.642;24.812;2023-08-12T05:35:06;96943.19;;;28.54;49.44
5954;BME280;3002;42.642;24.812;2023-08-12T05:37:31;96941.63;;;28.53;48.52
5954;BME280;3002;42.642;24.812;2023-08-12T05:39:57;96939.19;;;27.25;50.81
5954;BME280;3002;42.642;24.812;2023-08-12T05:42:22;96922.22;;;28.10;50.50
5954;BME280;3002;42.642;24.812;2023-08-12T05:44:47;96932.59;;;27.44;52.02
5954;BME280;3002;42.642;24.812;2023-08-12T05:47:13;96943.00;;;27.83;52.35
5954;BME280;3002;42.642;24.812;2023-08-12T05:49:38;96935.69;;;28.37;51.22
5954;BME280;3002;42.642;24.812;2023-08-12T05:52:04;96938.06;;;28.85;49.49
5954;BME280;3002;42.642;24.812;2023-08-12T05:54:30;96910.09;;;28.79;49.36
5954;BME280;3002;42.642;24.812;2023-08-12T05:56:55;96895.50;;;28.71;47.75
5954;BME280;3002;42.642;24.812;2023-08-12T05:59:21;96922.59;;;29.51;47.68
5954;BME280;3002;42.642;24.812;2023-08-12T06:01:46;96909.44;;;29.84;46.20
5954;BME280;3002;42.642;24.812;2023-08-12T06:04:12;96928.69;;;30.02;45.80
5954;BME280;3002;42.642;24.812;2023-08-12T06:06:37;96933.09;;;29.96;45.25
5954;BME280;3002;42.642;24.812;2023-08-12T06:09:03;96920.63;;;30.32;45.06
5954;BME280;3002;42.642;24.812;2023-08-12T06:11:28;96927.00;;;30.26;44.77
5954;BME280;3002;42.642;24.812;2023-08-12T06:13:54;96921.94;;;30.10;45.38
5954;BME280;3002;42.642;24.812;2023-08-12T06:16:19;96914.63;;;30.45;43.83
5954;BME280;3002;42.642;24.812;2023-08-12T06:18:45;96920.59;;;29.63;45.17
5954;BME280;3002;42.642;24.812;2023-08-12T06:21:10;96921.50;;;30.22;44.67
5954;BME280;3002;42.642;24.812;2023-08-12T06:23:36;96925.31;;;29.66;46.44
5954;BME280;3002;42.642;24.812;2023-08-12T06:26:01;96908.91;;;30.10;44.48
5954;BME280;3002;42.642;24.812;2023-08-12T06:28:27;96909.72;;;30.04;44.99
5954;BME280;3002;42.642;24.812;2023-08-12T06:30:52;96912.09;;;30.68;44.01
5954;BME280;3002;42.642;24.812;2023-08-12T06:33:18;96916.06;;;30.63;45.30
5954;BME280;3002;42.642;24.812;2023-08-12T06:35:44;96920.97;;;30.94;43.51
5954;BME280;3002;42.642;24.812;2023-08-12T06:38:09;96908.25;;;31.00;42.44
5954;BME280;3002;42.642;24.812;2023-08-12T06:40:35;96908.19;;;31.07;43.23
5954;BME280;3002;42.642;24.812;2023-08-12T06:43:01;96910.97;;;31.07;44.08
5954;BME280;3002;42.642;24.812;2023-08-12T06:45:26;96901.41;;;32.41;39.07
5954;BME280;3002;42.642;24.812;2023-08-12T06:47:52;96903.91;;;32.59;38.17
5954;BME280;3002;42.642;24.812;2023-08-12T06:50:17;96907.94;;;32.78;38.02
5954;BME280;3002;42.642;24.812;2023-08-12T06:52:43;96923.53;;;33.42;37.68
5954;BME280;3002;42.642;24.812;2023-08-12T06:55:08;96913.31;;;33.75;34.94
5954;BME280;3002;42.642;24.812;2023-08-12T06:57:34;96918.97;;;33.28;35.59
5954;BME280;3002;42.642;24.812;2023-08-12T06:59:59;96900.22;;;33.95;34.04
5954;BME280;3002;42.642;24.812;2023-08-12T07:02:24;96918.34;;;32.97;35.15
5954;BME280;3002;42.642;24.812;2023-08-12T07:04:50;96914.75;;;33.00;35.29
5954;BME280;3002;42.642;24.812;2023-08-12T07:07:15;96911.53;;;33.01;35.03
5954;BME280;3002;42.642;24.812;2023-08-12T07:09:41;96907.06;;;33.71;33.82
5954;BME280;3002;42.642;24.812;2023-08-12T07:12:06;96906.88;;;33.38;35.14
5954;BME280;3002;42.642;24.812;2023-08-12T07:14:32;96900.16;;;33.16;34.06
5954;BME280;3002;42.642;24.812;2023-08-12T07:16:57;96909.44;;;33.89;33.89
5954;BME280;3002;42.642;24.812;2023-08-12T07:19:23;96895.25;;;31.34;35.68
5954;BME280;3002;42.642;24.812;2023-08-12T07:21:48;96909.00;;;30.59;38.10
5954;BME280;3002;42.642;24.812;2023-08-12T07:24:14;96901.97;;;30.47;36.96
5954;BME280;3002;42.642;24.812;2023-08-12T07:26:39;96901.44;;;30.11;38.55
5954;BME280;3002;42.642;24.812;2023-08-12T07:29:05;96891.16;;;28.95;40.49
5954;BME280;3002;42.642;24.812;2023-08-12T07:31:30;96908.88;;;29.09;41.07
5954;BME280;3002;42.642;24.812;2023-08-12T07:33:56;96899.66;;;29.65;40.54
5954;BME280;3002;42.642;24.812;2023-08-12T07:36:21;96903.53;;;29.78;39.59
5954;BME280;3002;42.642;24.812;2023-08-12T07:38:47;96890.78;;;29.99;39.39
5954;BME280;3002;42.642;24.812;2023-08-12T07:41:13;96889.63;;;30.55;38.87
5954;BME280;3002;42.642;24.812;2023-08-12T07:43:38;96883.97;;;30.73;37.17
5954;BME280;3002;42.642;24.812;2023-08-12T07:46:04;96904.09;;;30.25;37.39
5954;BME280;3002;42.642;24.812;2023-08-12T07:48:29;96889.38;;;29.69;37.81
5954;BME280;3002;42.642;24.812;2023-08-12T07:50:58;96903.00;;;30.12;38.68
5954;BME280;3002;42.642;24.812;2023-08-12T07:53:25;96887.78;;;29.75;41.03
5954;BME280;3002;42.642;24.812;2023-08-12T07:55:51;96907.03;;;29.90;40.84
5954;BME280;3002;42.642;24.812;2023-08-12T07:58:16;96884.22;;;29.75;39.75
5954;BME280;3002;42.642;24.812;2023-08-12T08:00:42;96900.44;;;31.97;36.18
5954;BME280;3002;42.642;24.812;2023-08-12T08:03:07;96889.34;;;32.74;35.39
5954;BME280;3002;42.642;24.812;2023-08-12T08:05:33;96898.06;;;33.00;34.38
5954;BME280;3002;42.642;24.812;2023-08-12T08:07:58;96889.59;;;34.75;31.05
5954;BME280;3002;42.642;24.812;2023-08-12T08:10:24;96880.91;;;31.74;35.28
5954;BME280;3002;42.642;24.812;2023-08-12T08:12:49;96893.06;;;31.15;35.93
5954;BME280;3002;42.642;24.812;2023-08-12T08:15:15;96889.75;;;30.89;37.44
5954;BME280;3002;42.642;24.812;2023-08-12T08:17:40;96859.03;;;30.25;39.46
5954;BME280;3002;42.642;24.812;2023-08-12T08:20:06;96878.22;;;30.50;40.87
5954;BME280;3002;42.642;24.812;2023-08-12T08:22:32;96885.13;;;30.24;39.80
5954;BME280;3002;42.642;24.812;2023-08-12T08:24:58;96884.28;;;30.30;41.32
5954;BME280;3002;42.642;24.812;2023-08-12T08:27:23;96879.06;;;30.43;40.31
5954;BME280;3002;42.642;24.812;2023-08-12T08:29:49;96863.22;;;30.47;41.56
5954;BME280;3002;42.642;24.812;2023-08-12T08:32:14;96900.00;;;31.34;39.17
5954;BME280;3002;42.642;24.812;2023-08-12T08:34:40;96895.78;;;32.44;37.16
5954;BME280;3002;42.642;24.812;2023-08-12T08:37:05;96880.19;;;33.01;36.63
5954;BME280;3002;42.642;24.812;2023-08-12T08:39:32;96888.31;;;32.41;35.87
5954;BME280;3002;42.642;24.812;2023-08-12T08:41:58;96872.13;;;33.07;34.28
5954;BME280;3002;42.642;24.812;2023-08-12T08:44:29;96880.84;;;32.08;34.60
5954;BME280;3002;42.642;24.812;2023-08-12T08:46:58;96883.97;;;31.83;34.73
5954;BME280;3002;42.642;24.812;2023-08-12T08:49:25;96876.31;;;31.60;34.02
5954;BME280;3002;42.642;24.812;2023-08-12T08:51:51;96889.44;;;32.94;33.27
5954;BME280;3002;42.642;24.812;2023-08-12T08:54:18;96872.50;;;33.09;33.34
5954;BME280;3002;42.642;24.812;2023-08-12T08:56:44;96877.09;;;32.72;31.90
5954;BME280;3002;42.642;24.812;2023-08-12T08:59:10;96876.63;;;32.54;31.79
5954;BME280;3002;42.642;24.812;2023-08-12T09:01:36;96886.75;;;32.64;33.07
5954;BME280;3002;42.642;24.812;2023-08-12T09:04:02;96875.78;;;33.23;32.52
5954;BME280;3002;42.642;24.812;2023-08-12T09:06:29;96881.09;;;32.94;32.09
5954;BME280;3002;42.642;24.812;2023-08-12T09:08:55;96861.91;;;33.43;32.98
5954;BME280;3002;42.642;24.812;2023-08-12T09:11:21;96868.78;;;33.15;33.13
5954;BME280;3002;42.642;24.812;2023-08-12T09:13:47;96856.00;;;32.98;33.74
5954;BME280;3002;42.642;24.812;2023-08-12T09:16:13;96862.13;;;32.42;32.11
5954;BME280;3002;42.642;24.812;2023-08-12T09:18:40;96851.03;;;32.89;33.03
5954;BME280;3002;42.642;24.812;2023-08-12T09:21:05;96871.50;;;33.19;32.49
5954;BME280;3002;42.642;24.812;2023-08-12T09:23:38;96836.31;;;33.12;33.00
5954;BME280;3002;42.642;24.812;2023-08-12T09:26:15;96863.56;;;33.41;30.41
5954;BME280;3002;42.642;24.812;2023-08-12T09:28:41;96853.75;;;32.69;31.19
5954;BME280;3002;42.642;24.812;2023-08-12T09:31:07;96863.72;;;33.90;30.72
5954;BME280;3002;42.642;24.812;2023-08-12T09:33:38;96857.47;;;33.26;30.60
5954;BME280;3002;42.642;24.812;2023-08-12T09:36:04;96841.13;;;33.28;31.20
5954;BME280;3002;42.642;24.812;2023-08-12T09:38:29;96854.25;;;32.84;32.27
5954;BME280;3002;42.642;24.812;2023-08-12T09:40:56;96836.66;;;32.47;32.84
5954;BME280;3002;42.642;24.812;2023-08-12T09:43:27;96830.66;;;32.49;33.21
5954;BME280;3002;42.642;24.812;2023-08-12T09:45:56;96840.06;;;33.02;32.82
5954;BME280;3002;42.642;24.812;2023-08-12T09:48:22;96829.84;;;33.95;31.77
5954;BME280;3002;42.642;24.812;2023-08-12T09:50:47;96829.50;;;34.42;30.01
5954;BME280;3002;42.642;24.812;2023-08-12T09:53:13;96817.16;;;34.10;30.57
5954;BME280;3002;42.642;24.812;2023-08-12T09:55:38;96824.81;;;32.90;33.53
5954;BME280;3002;42.642;24.812;2023-08-12T09:58:06;96821.75;;;33.64;33.20
5954;BME280;3002;42.642;24.812;2023-08-12T10:00:35;96834.41;;;33.49;33.70
5954;BME280;3002;42.642;24.812;2023-08-12T10:03:01;96832.84;;;33.05;34.74
5954;BME280;3002;42.642;24.812;2023-08-12T10:05:28;96823.44;;;33.78;33.80
5954;BME280;3002;42.642;24.812;2023-08-12T10:07:56;96824.50;;;35.27;32.03
5954;BME280;3002;42.642;24.812;2023-08-12T10:10:22;96818.75;;;34.89;32.46
5954;BME280;3002;42.642;24.812;2023-08-12T10:12:48;96816.63;;;33.63;33.57
5954;BME280;3002;42.642;24.812;2023-08-12T10:15:14;96817.56;;;32.73;34.48
5954;BME280;3002;42.642;24.812;2023-08-12T10:17:41;96816.84;;;32.69;36.16
5954;BME280;3002;42.642;24.812;2023-08-12T10:20:08;96812.22;;;31.54;36.59
5954;BME280;3002;42.642;24.812;2023-08-12T10:22:35;96808.59;;;30.96;38.06
5954;BME280;3002;42.642;24.812;2023-08-12T10:25:21;96808.13;;;31.01;37.77
5954;BME280;3002;42.642;24.812;2023-08-12T10:27:47;96804.09;;;31.06;38.41
5954;BME280;3002;42.642;24.812;2023-08-12T10:30:13;96805.59;;;30.76;38.45
5954;BME280;3002;42.642;24.812;2023-08-12T10:32:39;96804.78;;;30.38;38.75
5954;BME280;3002;42.642;24.812;2023-08-12T10:35:05;96798.44;;;30.41;39.78
5954;BME280;3002;42.642;24.812;2023-08-12T10:37:33;96808.00;;;30.78;39.83
5954;BME280;3002;42.642;24.812;2023-08-12T10:40:00;96816.09;;;30.96;38.86
5954;BME280;3002;42.642;24.812;2023-08-12T10:42:47;96806.38;;;31.14;38.37
5954;BME280;3002;42.642;24.812;2023-08-12T10:45:14;96811.69;;;31.36;38.34
5954;BME280;3002;42.642;24.812;2023-08-12T10:47:48;96801.81;;;31.35;37.74
5954;BME280;3002;42.642;24.812;2023-08-12T10:52:43;96805.38;;;30.98;38.59
5954;BME280;3002;42.642;24.812;2023-08-12T10:55:19;96797.31;;;31.44;38.19
5954;BME280;3002;42.642;24.812;2023-08-12T10:57:46;96801.66;;;32.03;37.60
5954;BME280;3002;42.642;24.812;2023-08-12T11:00:15;96788.75;;;32.16;35.77
5954;BME280;3002;42.642;24.812;2023-08-12T11:02:45;96782.84;;;32.14;35.28
5954;BME280;3002;42.642;24.812;2023-08-12T11:05:12;96792.06;;;32.08;35.20
5954;BME280;3002;42.642;24.812;2023-08-12T11:10:17;96780.97;;;35.59;30.37
5954;BME280;3002;42.642;24.812;2023-08-12T11:12:54;96793.47;;;36.78;28.70
5954;BME280;3002;42.642;24.812;2023-08-12T11:15:46;96790.50;;;36.94;29.10
5954;BME280;3002;42.642;24.812;2023-08-12T11:18:14;96776.16;;;37.49;28.83
5954;BME280;3002;42.642;24.812;2023-08-12T11:20:41;96784.91;;;36.00;29.12
5954;BME280;3002;42.642;24.812;2023-08-12T11:23:09;96762.69;;;34.58;30.93
5954;BME280;3002;42.642;24.812;2023-08-12T11:25:36;96777.22;;;34.17;32.07
5954;BME280;3002;42.642;24.812;2023-08-12T11:28:04;96772.00;;;33.50;33.29
5954;BME280;3002;42.642;24.812;2023-08-12T11:30:30;96774.38;;;33.68;32.79
5954;BME280;3002;42.642;24.812;2023-08-12T11:32:56;96772.81;;;35.10;31.06
5954;BME280;3002;42.642;24.812;2023-08-12T11:35:23;96773.16;;;35.54;29.75
5954;BME280;3002;42.642;24.812;2023-08-12T11:37:52;96778.84;;;36.27;29.41
5954;BME280;3002;42.642;24.812;2023-08-12T11:40:19;96779.09;;;38.26;27.43
5954;BME280;3002;42.642;24.812;2023-08-12T11:42:47;96776.22;;;37.36;27.75
5954;BME280;3002;42.642;24.812;2023-08-12T11:45:15;96774.13;;;34.76;30.64
5954;BME280;3002;42.642;24.812;2023-08-12T11:47:41;96748.63;;;34.91;30.96
5954;BME280;3002;42.642;24.812;2023-08-12T11:50:08;96764.13;;;36.95;28.69
5954;BME280;3002;42.642;24.812;2023-08-12T11:52:35;96766.38;;;36.66;28.77
5954;BME280;3002;42.642;24.812;2023-08-12T11:55:01;96769.84;;;34.10;31.70
5954;BME280;3002;42.642;24.812;2023-08-12T11:57:27;96765.78;;;33.62;33.07
5954;BME280;3002;42.642;24.812;2023-08-12T11:59:59;96749.16;;;32.39;34.12
5954;BME280;3002;42.642;24.812;2023-08-12T12:02:25;96763.78;;;31.93;35.26
5954;BME280;3002;42.642;24.812;2023-08-12T12:04:52;96770.66;;;32.08;35.34
5954;BME280;3002;42.642;24.812;2023-08-12T12:07:18;96776.63;;;32.34;34.91
5954;BME280;3002;42.642;24.812;2023-08-12T12:09:44;96772.78;;;32.47;35.40
5954;BME280;3002;42.642;24.812;2023-08-12T12:12:10;96753.81;;;31.95;36.45
5954;BME280;3002;42.642;24.812;2023-08-12T12:14:36;96760.41;;;31.51;37.05
5954;BME280;3002;42.642;24.812;2023-08-12T12:17:07;96764.56;;;32.17;36.42
5954;BME280;3002;42.642;24.812;2023-08-12T12:19:33;96722.22;;;32.13;35.27
5954;BME280;3002;42.642;24.812;2023-08-12T12:22:02;96754.50;;;32.50;34.79
5954;BME280;3002;42.642;24.812;2023-08-12T12:24:29;96757.47;;;32.16;36.49
5954;BME280;3002;42.642;24.812;2023-08-12T12:26:56;96746.22;;;32.23;35.25
5954;BME280;3002;42.642;24.812;2023-08-12T12:29:21;96731.41;;;32.76;34.83
5954;BME280;3002;42.642;24.812;2023-08-12T12:31:47;96743.03;;;32.24;36.55
5954;BME280;3002;42.642;24.812;2023-08-12T12:34:12;96744.53;;;31.79;36.23
5954;BME280;3002;42.642;24.812;2023-08-12T12:36:39;96736.59;;;31.23;36.96
5954;BME280;3002;42.642;24.812;2023-08-12T12:39:06;96752.91;;;32.26;36.39
5954;BME280;3002;42.642;24.812;2023-08-12T12:41:32;96755.19;;;32.97;36.85
5954;BME280;3002;42.642;24.812;2023-08-12T12:44:00;96734.88;;;32.14;36.37
5954;BME280;3002;42.642;24.812;2023-08-12T12:46:26;96738.69;;;32.47;35.84
5954;BME280;3002;42.642;24.812;2023-08-12T12:48:52;96735.59;;;31.94;36.75
5954;BME280;3002;42.642;24.812;2023-08-12T12:51:17;96739.03;;;32.26;36.77
5954;BME280;3002;42.642;24.812;2023-08-12T12:53:43;96739.97;;;32.42;37.28
5954;BME280;3002;42.642;24.812;2023-08-12T12:56:08;96730.13;;;32.38;37.18
5954;BME280;3002;42.642;24.812;2023-08-12T12:58:35;96742.06;;;33.38;35.04
5954;BME280;3002;42.642;24.812;2023-08-12T13:01:01;96716.63;;;33.92;33.38
5954;BME280;3002;42.642;24.812;2023-08-12T13:03:27;96717.66;;;34.59;33.85
5954;BME280;3002;42.642;24.812;2023-08-12T13:05:52;96715.84;;;34.37;33.78
5954;BME280;3002;42.642;24.812;2023-08-12T13:08:18;96711.06;;;33.92;34.23
5954;BME280;3002;42.642;24.812;2023-08-12T13:10:44;96726.19;;;34.07;34.12
5954;BME280;3002;42.642;24.812;2023-08-12T13:13:13;96725.81;;;33.72;34.31